AirNav   Pilot Hours Calculator
 
 1083 users online  

AK90 Shirley Lake Airport
Willow, Alaska, USA

GOING TO WILLOW?


FAA INFORMATION EFFECTIVE 20 MAY 2021

Location

FAA Identifier: AK90
Lat/Long: 61-44-40.9900N 150-06-55.6600W
61-44.683167N 150-06.927667W
61.7447194,-150.1154611
(estimated)
Elevation: 185 ft. / 56 m (estimated)
Variation: 25E (1985)
From city: 2 miles S of WILLOW, AK
Time zone: UTC -8 (UTC -9 during Standard Time)
Zip code: 99688

Airport Operations

Airport use: Private use. Permission required prior to landing
Activation date: 06/1977
Control tower: no
ARTCC: ANCHORAGE CENTER
FSS: KENAI FLIGHT SERVICE STATION [907-283-7211]
Attendance: UNATNDD
Segmented circle: no

Airport Communications

CTAF: 122.8
WX AWOS-3P at IYS (19 nm SE): 135.25 (907-373-3801)

Nearby radio navigation aids

VOR radial/distance  VOR name  Freq  Var
BGQr319/11.3BIG LAKE VORTAC112.5019E
TKAr161/33.2TALKEETNA VOR/DME116.2019E
TEDr335/34.9ANCHORAGE VOR/DME113.1518E

 
NDB name  Hdg/Dist  Freq  Var  ID
PETERS CREEK165/35.230516EPEE .--. . .

Airport Services

Airframe service: NONE
Powerplant service: NONE
Bottled oxygen: NONE
Bulk oxygen: NONE

Runway Information

Runway 16/34

Dimensions: 1800 x 30 ft. / 549 x 9 m
Surface: turf
RUNWAY 16  RUNWAY 34
Traffic pattern: leftleft
Markings: nonenone
Runway end identifier lights: nono
Obstructions: 20 ft. trees, 120 ft. from runway, 50 ft. left of centerline, 4:1 slope to clear60 ft. trees, 140 ft. from runway, 60 ft. left of centerline, 2:1 slope to clear

Airport Ownership and Management from official FAA records

Ownership: Privately-owned
Owner: SHIRLEY LAKE SUBDIVISION OWNERS
GENERAL DELIVER
WASILLA, AK 99687-9999
Manager: SHIRLEY LAKE SUBDIVISION OWNERS
BOX 1562, GENERAL DELIVER
WASILLA, AK 99687-9999
Phone 907-272-8394

Airport Operational Statistics

Aircraft based on the field: 1
Single engine airplanes: 1
    

Additional Remarks

TREES ON BOTH SIDES OF RWY APPROX 50' FROM CENTERLINE.
MOOSE ON & INVOF ARPT.
ROAD CROSSES AER 34.

Instrument Procedures

There are no published instrument procedures at AK90.

Some nearby airports with instrument procedures:

PAUO - Willow Airport (2 nm E)
PAGQ - Big Lake Airport (15 nm SE)
PAWS - Wasilla Airport (19 nm SE)
PAAQ - Warren "Bud" Woods Palmer Municipal Airport (31 nm E)
PAED - Elmendorf Air Force Base (31 nm S)
 
Loc | Ops | Rwys | IFR | FBO | Links
Com | Nav | Svcs | Stats | Notes

Crowley
 
Area around AK90 (Shirley Lake Airport)
 
Road maps at: MapQuest Bing Google
 
Aerial photo
No photo
 
Sectional chart

 
Airport distance calculator
Flying to Shirley Lake Airport? Find the distance to fly.

From to AK90

Sunrise and sunset
Times for 13-Jun-2021
 Local
(UTC-8)
 Zulu
(UTC)
Morning civil twilight++
Sunrise04:1612:16
Sunset23:4507:45
Evening civil twilight++

Current date and time
Zulu (UTC)  13-Jun-2021 19:44:07
Local (UTC-8)  13-Jun-2021 11:44:07
 
METAR
TAF
PAAQ 
31nm E 
131723Z 1318/1418 VRB05KT P6SM FEW070
PAED 
31nm S 
131800Z 1318/1500 24010KT 9999 FEW060 SCT200 QNH2989INS BECMG 1403/1404 VRB06KT 9999 FEW040 FEW200 QNH2989INS TX20/1402Z TN09/1413Z
PATK 
33nm N 
131723Z 1318/1418 20005KT P6SM FEW250= TAF PAVD 131723Z 1318/1418 27006KT P6SM SCT015 OVC030 TEMPO 1318/1322 BKN015 FM132200 22011KT P6SM SCT040 BKN070 FM140800 VRB04KT P6SM BKN100 AMD LTD TO CLD VIS AND WIND
PANC 
35nm S 
131723Z 1318/1424 23009KT P6SM FEW060 SCT200
NOTAMs
Click for the latest NOTAMs
NOTAMs are issued by the DoD/FAA and will open in a separate window not controlled by AirNav.

 

 
 

Would you like to see your business listed on this page?

 If your business provides an interesting product or service to pilots, flight crews, aircraft, or users of the Shirley Lake Airport, you should consider listing it here.  To start the listing process, click on the button below
 
Add a business
 

Other Pages about Shirley Lake Airport

Update a link
 
Copyright © AirNav, LLC. All rights reserved. Privacy Policy  Contact